createdAt,value
2022-12-09T00:00:40.684Z,13.13
2022-12-09T00:03:07.658Z,13.13
2022-12-09T00:05:34.682Z,13.55
2022-12-09T00:08:01.603Z,14.07
2022-12-09T00:10:28.551Z,13.02
2022-12-09T00:12:56.236Z,12.98
2022-12-09T00:15:23.595Z,14.15
2022-12-09T00:17:50.455Z,13.23
2022-12-09T00:20:17.506Z,13.82
2022-12-09T00:22:44.476Z,13.80
2022-12-09T00:25:11.243Z,14.18
2022-12-09T00:27:37.945Z,13.38
2022-12-09T00:30:06.127Z,14.00
2022-12-09T00:32:33.392Z,13.70
2022-12-09T00:35:00.321Z,14.77
2022-12-09T00:37:27.096Z,14.38
2022-12-09T00:39:53.779Z,13.57
2022-12-09T00:42:20.724Z,13.70
2022-12-09T00:44:47.435Z,13.93
2022-12-09T00:47:14.631Z,14.13
2022-12-09T00:49:41.579Z,14.63
2022-12-09T00:52:08.422Z,13.70
2022-12-09T00:54:35.630Z,14.23
2022-12-09T00:57:02.470Z,13.32
2022-12-09T00:59:29.221Z,14.27
2022-12-09T01:01:57.166Z,14.10
2022-12-09T01:04:25.478Z,13.80
2022-12-09T01:06:52.873Z,15.05
2022-12-09T01:09:19.655Z,14.18
2022-12-09T01:11:46.514Z,14.48
2022-12-09T01:14:13.327Z,14.48
2022-12-09T01:16:40.322Z,14.25
2022-12-09T01:19:09.103Z,15.07
2022-12-09T01:21:36.171Z,14.60
2022-12-09T01:24:08.659Z,14.68
2022-12-09T01:26:36.323Z,13.68
2022-12-09T01:29:03.266Z,14.35
2022-12-09T01:31:30.311Z,15.35
2022-12-09T01:33:57.121Z,14.18
2022-12-09T01:36:26.999Z,15.00
2022-12-09T01:38:54.266Z,16.33
2022-12-09T01:41:22.164Z,16.77
2022-12-09T01:44:14.225Z,15.95
2022-12-09T01:46:41.328Z,16.23
2022-12-09T01:49:11.556Z,16.73
2022-12-09T01:51:39.669Z,15.90
2022-12-09T01:54:06.893Z,16.67
2022-12-09T01:56:35.943Z,17.40
2022-12-09T01:59:09.830Z,17.23
2022-12-09T02:01:37.578Z,18.17
2022-12-09T02:04:05.936Z,18.95
2022-12-09T02:06:35.347Z,18.52
2022-12-09T02:09:02.161Z,20.83
2022-12-09T02:11:46.198Z,21.45
2022-12-09T02:14:25.800Z,22.23
2022-12-09T02:17:00.017Z,19.90
2022-12-09T02:19:53.733Z,19.80
2022-12-09T02:22:26.182Z,20.50
2022-12-09T02:24:59.367Z,20.60
2022-12-09T02:27:34.124Z,21.33
2022-12-09T02:30:29.198Z,21.20
2022-12-09T02:35:54.991Z,19.95
2022-12-09T02:38:26.881Z,20.20
2022-12-09T02:41:05.237Z,19.67
2022-12-09T02:43:41.154Z,20.05
2022-12-09T02:46:13.747Z,21.90
2022-12-09T02:48:45.357Z,20.73
2022-12-09T02:51:18.166Z,20.15
2022-12-09T02:53:49.350Z,20.88
2022-12-09T02:56:18.443Z,20.92
2022-12-09T02:58:45.348Z,21.17
2022-12-09T03:01:29.475Z,22.33
2022-12-09T03:03:56.737Z,22.13
2022-12-09T03:06:30.539Z,22.08
2022-12-09T03:09:02.787Z,17.40
2022-12-09T03:11:32.193Z,22.45
2022-12-09T03:14:06.875Z,21.55
2022-12-09T03:16:37.697Z,23.38
2022-12-09T03:19:27.850Z,24.00
2022-12-09T03:21:58.500Z,22.67
2022-12-09T03:24:29.580Z,23.50
2022-12-09T03:26:57.804Z,23.77
2022-12-09T03:29:27.482Z,23.58
2022-12-09T03:31:57.087Z,22.67
2022-12-09T03:34:31.029Z,21.13
2022-12-09T03:37:00.015Z,20.85
2022-12-09T03:39:32.244Z,20.70
2022-12-09T03:42:02.388Z,20.50
2022-12-09T03:44:42.075Z,20.65
2022-12-09T03:47:09.842Z,20.13
2022-12-09T03:49:39.001Z,19.13
2022-12-09T03:52:32.510Z,19.48
2022-12-09T03:55:22.420Z,19.63
2022-12-09T03:57:53.314Z,20.20
2022-12-09T04:00:20.369Z,19.42
2022-12-09T04:02:47.254Z,19.17
2022-12-09T04:05:14.545Z,19.35
2022-12-09T04:07:42.471Z,19.65
2022-12-09T04:10:10.136Z,21.17
2022-12-09T04:12:37.510Z,19.50
2022-12-09T04:15:04.690Z,19.88
2022-12-09T04:17:31.513Z,19.80
2022-12-09T04:19:58.349Z,19.13
2022-12-09T04:22:25.110Z,19.42
2022-12-09T04:24:51.890Z,19.92
2022-12-09T04:27:18.969Z,19.30
2022-12-09T04:29:45.788Z,18.42
2022-12-09T04:32:12.880Z,18.00
2022-12-09T04:34:40.135Z,19.17
2022-12-09T04:37:07.440Z,18.75
2022-12-09T04:39:34.417Z,18.30
2022-12-09T04:42:01.298Z,17.95
2022-12-09T04:44:28.012Z,18.52
2022-12-09T04:46:54.950Z,18.65
2022-12-09T04:49:22.194Z,17.83
2022-12-09T04:51:49.113Z,18.25
2022-12-09T04:54:16.055Z,18.65
2022-12-09T04:56:43.776Z,17.73
2022-12-09T04:59:11.081Z,18.98
2022-12-09T05:01:38.022Z,17.58
2022-12-09T05:04:05.546Z,19.15
2022-12-09T05:06:32.926Z,17.65
2022-12-09T05:09:00.212Z,17.95
2022-12-09T05:11:27.532Z,18.67
2022-12-09T05:13:54.681Z,17.90
2022-12-09T05:16:22.502Z,18.30
2022-12-09T05:18:50.002Z,19.05
2022-12-09T05:21:19.585Z,18.60
2022-12-09T05:23:47.290Z,18.40
2022-12-09T05:26:18.530Z,17.70
2022-12-09T05:28:45.802Z,17.63
2022-12-09T05:31:17.092Z,19.05
2022-12-09T05:33:45.028Z,18.20
2022-12-09T05:36:13.905Z,18.85
2022-12-09T05:38:41.804Z,19.35
2022-12-09T05:41:09.145Z,18.55
2022-12-09T05:43:37.095Z,18.55
2022-12-09T05:46:06.522Z,18.92
2022-12-09T05:48:34.017Z,17.95
2022-12-09T05:51:05.356Z,18.33
2022-12-09T05:53:32.801Z,17.98
2022-12-09T05:56:00.049Z,18.08
2022-12-09T05:58:27.105Z,17.80
2022-12-09T06:00:57.253Z,18.45
2022-12-09T06:03:25.267Z,18.20
2022-12-09T06:05:52.651Z,18.33
2022-12-09T06:08:20.415Z,18.00
2022-12-09T06:10:47.457Z,17.48
2022-12-09T06:13:14.820Z,17.35
2022-12-09T06:15:41.832Z,18.77
2022-12-09T06:18:09.035Z,18.95
2022-12-09T06:20:42.537Z,16.88
2022-12-09T06:23:09.705Z,17.63
2022-12-09T06:25:36.909Z,17.02
2022-12-09T06:28:04.221Z,17.80
2022-12-09T06:30:31.837Z,17.42
2022-12-09T06:32:59.125Z,18.30
2022-12-09T06:35:26.120Z,17.42
2022-12-09T06:37:53.718Z,17.55
2022-12-09T06:40:24.392Z,17.75
2022-12-09T06:42:51.933Z,17.23
2022-12-09T06:45:20.216Z,17.95
2022-12-09T06:47:48.423Z,17.65
2022-12-09T06:50:16.225Z,16.35
2022-12-09T06:52:43.506Z,17.85
2022-12-09T06:55:13.109Z,18.35
2022-12-09T06:57:40.259Z,17.15
2022-12-09T07:00:08.444Z,16.95
2022-12-09T07:02:36.786Z,16.88
2022-12-09T07:05:04.397Z,16.83
2022-12-09T07:07:32.393Z,17.70
2022-12-09T07:10:02.100Z,17.30
2022-12-09T07:12:29.115Z,17.40
2022-12-09T07:14:55.974Z,17.40
2022-12-09T07:17:23.249Z,16.88
2022-12-09T07:19:50.588Z,17.63
2022-12-09T07:22:17.928Z,17.38
2022-12-09T07:24:45.204Z,17.02
2022-12-09T07:27:19.411Z,17.95
2022-12-09T07:29:47.303Z,17.45
2022-12-09T07:32:14.818Z,17.45
2022-12-09T07:34:42.530Z,17.92
2022-12-09T07:37:10.037Z,16.63
2022-12-09T07:39:37.484Z,18.17
2022-12-09T07:42:04.548Z,17.35
2022-12-09T07:44:31.735Z,17.88
2022-12-09T07:46:58.742Z,16.80
2022-12-09T07:49:26.501Z,17.58
2022-12-09T07:51:53.617Z,17.30
2022-12-09T07:54:21.313Z,17.05
2022-12-09T07:56:48.746Z,17.02
2022-12-09T07:59:17.034Z,17.63
2022-12-09T08:01:44.554Z,17.42
2022-12-09T08:04:11.807Z,16.65
2022-12-09T08:06:39.524Z,16.52
2022-12-09T08:09:11.285Z,16.90
2022-12-09T08:11:38.519Z,17.30
2022-12-09T08:14:11.352Z,16.42
2022-12-09T08:16:40.452Z,12.13
2022-12-09T08:19:08.130Z,17.02
2022-12-09T08:21:35.323Z,17.05
2022-12-09T08:24:06.085Z,16.15
2022-12-09T08:26:34.244Z,16.48
2022-12-09T08:29:01.805Z,16.52
2022-12-09T08:31:29.937Z,17.25
2022-12-09T08:33:58.822Z,16.92
2022-12-09T08:36:28.288Z,16.73
2022-12-09T08:38:58.807Z,17.00
2022-12-09T08:41:38.560Z,16.45
2022-12-09T08:44:10.434Z,16.65
2022-12-09T08:46:39.263Z,16.70
2022-12-09T08:49:07.359Z,17.73
2022-12-09T08:51:35.028Z,17.20
2022-12-09T08:54:02.612Z,17.33
2022-12-09T08:56:30.103Z,17.27
2022-12-09T08:58:57.221Z,17.60
2022-12-09T09:01:32.252Z,17.48
2022-12-09T09:04:05.434Z,17.60
2022-12-09T09:06:33.286Z,17.85
2022-12-09T09:09:00.273Z,16.70
2022-12-09T09:11:27.956Z,16.83
2022-12-09T09:13:55.371Z,16.70
2022-12-09T09:16:24.785Z,17.23
2022-12-09T09:18:52.459Z,16.75
2022-12-09T09:21:23.352Z,17.15
2022-12-09T09:23:50.975Z,18.38
2022-12-09T09:26:25.997Z,16.77
2022-12-09T09:28:54.390Z,16.27
2022-12-09T09:31:23.428Z,17.38
2022-12-09T09:33:51.252Z,17.83
2022-12-09T09:36:23.649Z,18.35
2022-12-09T09:38:53.080Z,17.27
2022-12-09T09:41:41.922Z,17.80
2022-12-09T09:44:21.958Z,17.42
2022-12-09T09:46:51.152Z,17.38
2022-12-09T09:49:58.998Z,17.95
2022-12-09T09:52:28.402Z,17.98
2022-12-09T09:54:56.330Z,18.20
2022-12-09T09:57:29.153Z,17.65
2022-12-09T10:00:15.105Z,18.30
2022-12-09T10:03:04.829Z,18.48
2022-12-09T10:05:52.923Z,18.77
2022-12-09T10:08:36.271Z,19.02
2022-12-09T10:11:21.027Z,18.52
2022-12-09T10:14:19.308Z,18.30
2022-12-09T10:16:56.600Z,18.88
2022-12-09T10:19:35.283Z,19.25
2022-12-09T10:22:19.684Z,17.85
2022-12-09T10:24:59.016Z,19.25
2022-12-09T10:27:33.560Z,18.08
2022-12-09T10:32:42.244Z,19.77
2022-12-09T10:35:22.853Z,18.90
2022-12-09T10:37:55.103Z,19.98
2022-12-09T10:40:49.915Z,19.20
2022-12-09T10:43:38.807Z,22.10
2022-12-09T10:46:21.053Z,19.92
2022-12-09T10:48:48.958Z,20.48
2022-12-09T10:51:26.962Z,24.25
2022-12-09T10:53:55.933Z,19.05
2022-12-09T10:56:31.565Z,20.45
2022-12-09T10:59:16.625Z,20.88
2022-12-09T11:01:51.719Z,20.70
2022-12-09T11:04:26.811Z,20.60
2022-12-09T11:07:03.063Z,21.52
2022-12-09T11:09:34.962Z,21.33
2022-12-09T11:12:06.685Z,21.52
2022-12-09T11:14:40.561Z,21.63
2022-12-09T11:17:15.912Z,21.00
2022-12-09T11:19:46.967Z,20.33
2022-12-09T11:22:40.327Z,22.30
2022-12-09T11:25:27.228Z,21.27
2022-12-09T11:28:15.800Z,19.77
2022-12-09T11:31:27.043Z,21.52
2022-12-09T11:33:49.079Z,21.23
2022-12-09T11:36:24.954Z,20.90
2022-12-09T11:39:06.660Z,19.80
2022-12-09T11:41:53.141Z,20.27
2022-12-09T11:44:30.901Z,20.73
2022-12-09T11:46:59.384Z,20.35
2022-12-09T11:49:28.622Z,21.02
2022-12-09T11:52:24.212Z,20.75
2022-12-09T11:55:15.342Z,19.55
2022-12-09T11:57:56.861Z,20.13
2022-12-09T12:00:27.645Z,19.85
2022-12-09T12:03:06.390Z,20.17
2022-12-09T12:05:41.947Z,20.27
2022-12-09T12:08:27.243Z,18.80
2022-12-09T12:11:21.909Z,20.02
2022-12-09T12:13:52.769Z,19.15
2022-12-09T12:16:32.449Z,18.83
2022-12-09T12:19:30.450Z,19.75
2022-12-09T12:22:00.118Z,18.30
2022-12-09T12:24:53.675Z,19.10
2022-12-09T12:27:36.014Z,18.83
2022-12-09T12:30:23.337Z,18.00
2022-12-09T12:36:43.076Z,17.73
2022-12-09T12:39:13.985Z,18.38
2022-12-09T12:42:02.158Z,18.02
2022-12-09T12:45:03.506Z,18.48
2022-12-09T12:47:59.748Z,19.05
2022-12-09T12:50:38.702Z,18.33
2022-12-09T12:53:22.159Z,18.08
2022-12-09T12:56:08.820Z,18.08
2022-12-09T12:58:59.202Z,18.98
2022-12-09T13:01:40.117Z,18.45
2022-12-09T13:04:48.069Z,18.55
2022-12-09T13:07:30.446Z,18.20
2022-12-09T13:10:03.974Z,18.42
2022-12-09T13:12:54.471Z,18.75
2022-12-09T13:15:32.273Z,17.95
2022-12-09T13:18:11.639Z,17.42
2022-12-09T13:20:50.581Z,16.80
2022-12-09T13:24:02.416Z,17.25
2022-12-09T13:26:56.898Z,17.17
2022-12-09T13:29:38.695Z,12.77
2022-12-09T13:32:08.196Z,17.08
2022-12-09T13:34:42.026Z,17.60
2022-12-09T13:37:30.307Z,17.58
2022-12-09T13:39:58.650Z,17.58
2022-12-09T13:42:47.077Z,17.75
2022-12-09T13:45:25.301Z,17.23
2022-12-09T13:47:55.982Z,16.45
2022-12-09T13:50:37.707Z,16.27
2022-12-09T13:53:21.470Z,14.88
2022-12-09T13:56:01.643Z,15.70
2022-12-09T13:58:58.044Z,16.45
2022-12-09T14:01:45.797Z,15.52
2022-12-09T14:04:12.760Z,15.50
2022-12-09T14:06:45.595Z,16.98
2022-12-09T14:09:31.186Z,16.10
2022-12-09T14:12:03.348Z,16.70
2022-12-09T14:14:30.018Z,18.25
2022-12-09T14:16:59.490Z,18.13
2022-12-09T14:19:26.390Z,17.58
2022-12-09T14:22:25.175Z,18.83
2022-12-09T14:24:53.559Z,18.83
2022-12-09T14:27:23.293Z,18.58
2022-12-09T14:30:01.925Z,19.70
2022-12-09T14:32:29.090Z,19.13
2022-12-09T14:35:00.160Z,17.95
2022-12-09T14:37:40.014Z,17.73
2022-12-09T14:40:19.020Z,19.75
2022-12-09T14:43:01.670Z,19.30
2022-12-09T14:45:44.262Z,17.85
2022-12-09T14:48:16.373Z,19.52
2022-12-09T14:50:43.153Z,17.98
2022-12-09T14:53:23.644Z,18.95
2022-12-09T14:55:51.203Z,18.98
2022-12-09T14:58:20.988Z,18.65
2022-12-09T15:00:47.800Z,19.60
2022-12-09T15:03:34.265Z,19.77
2022-12-09T15:06:12.100Z,19.08
2022-12-09T15:08:41.379Z,18.83
2022-12-09T15:11:20.658Z,18.98
2022-12-09T15:13:49.498Z,19.88
2022-12-09T15:16:19.717Z,18.67
2022-12-09T15:18:46.951Z,19.27
2022-12-09T15:21:40.551Z,19.85
2022-12-09T15:24:14.502Z,19.95
2022-12-09T15:26:41.631Z,18.73
2022-12-09T15:29:21.796Z,21.10
2022-12-09T15:31:50.810Z,19.80
2022-12-09T15:37:06.664Z,18.85
2022-12-09T15:40:01.607Z,18.67
2022-12-09T15:42:31.300Z,18.45
2022-12-09T15:45:11.588Z,18.85
2022-12-09T15:48:00.182Z,18.58
2022-12-09T15:50:39.382Z,19.02
2022-12-09T15:53:17.782Z,20.00
2022-12-09T15:56:14.738Z,19.50
2022-12-09T15:58:48.922Z,18.83
2022-12-09T16:01:22.736Z,18.40
2022-12-09T16:03:51.582Z,20.08
2022-12-09T16:06:35.889Z,19.88
2022-12-09T16:09:10.735Z,19.15
2022-12-09T16:11:47.936Z,19.42
2022-12-09T16:14:16.543Z,19.73
2022-12-09T16:16:47.422Z,19.15
2022-12-09T16:19:36.280Z,19.90
2022-12-09T16:22:14.994Z,20.30
2022-12-09T16:25:14.229Z,18.05
2022-12-09T16:27:45.189Z,18.23
2022-12-09T16:30:20.862Z,17.98
2022-12-09T16:32:51.183Z,17.95
2022-12-09T16:35:17.960Z,18.45
2022-12-09T16:38:10.539Z,18.98
2022-12-09T16:40:46.353Z,18.30
2022-12-09T16:43:16.328Z,18.00
2022-12-09T16:45:53.324Z,18.95
2022-12-09T16:48:21.242Z,18.02
2022-12-09T16:50:56.511Z,19.77
2022-12-09T16:53:31.757Z,19.50
2022-12-09T16:56:01.245Z,19.02
2022-12-09T16:58:34.278Z,19.83
2022-12-09T17:01:03.384Z,21.15
2022-12-09T17:03:46.834Z,18.85
2022-12-09T17:06:16.020Z,19.73
2022-12-09T17:08:42.970Z,20.90
2022-12-09T17:11:10.694Z,19.67
2022-12-09T17:13:37.721Z,20.55
2022-12-09T17:16:05.676Z,21.75
2022-12-09T17:18:32.977Z,20.85
2022-12-09T17:21:05.523Z,20.85
2022-12-09T17:23:39.104Z,21.88
2022-12-09T17:26:08.931Z,20.63
2022-12-09T17:28:36.370Z,20.40
2022-12-09T17:31:11.401Z,21.83
2022-12-09T17:33:38.498Z,21.25
2022-12-09T17:36:06.075Z,21.63
2022-12-09T17:38:32.867Z,21.48
2022-12-09T17:41:11.246Z,22.15
2022-12-09T17:43:38.029Z,20.77
2022-12-09T17:46:06.032Z,21.67
2022-12-09T17:48:34.556Z,20.45
2022-12-09T17:51:12.682Z,20.02
2022-12-09T17:53:41.033Z,20.65
2022-12-09T17:56:14.062Z,20.73
2022-12-09T17:58:41.047Z,21.73
2022-12-09T18:01:23.517Z,22.25
2022-12-09T18:04:01.388Z,21.17
2022-12-09T18:06:34.500Z,21.77
2022-12-09T18:10:11.057Z,20.45
2022-12-09T18:12:37.993Z,20.70
2022-12-09T18:15:05.002Z,21.20
2022-12-09T18:17:33.977Z,20.90
2022-12-09T18:20:00.831Z,21.05
2022-12-09T18:22:27.744Z,21.88
2022-12-09T18:24:54.503Z,20.70
2022-12-09T18:27:21.341Z,20.55
2022-12-09T18:29:48.112Z,19.63
2022-12-09T18:32:15.146Z,21.75
2022-12-09T18:34:41.843Z,19.52
2022-12-09T18:37:08.587Z,20.80
2022-12-09T18:39:36.511Z,21.58
2022-12-09T18:42:03.538Z,20.63
2022-12-09T18:44:30.256Z,20.73
2022-12-09T18:46:56.969Z,21.45
2022-12-09T18:49:27.048Z,20.83
2022-12-09T18:51:54.862Z,19.80
2022-12-09T18:54:24.590Z,20.10
2022-12-09T18:56:51.556Z,20.33
2022-12-09T18:59:20.781Z,21.38
2022-12-09T19:01:48.674Z,20.75
2022-12-09T19:04:24.578Z,21.80
2022-12-09T19:06:53.938Z,21.73
2022-12-09T19:09:22.989Z,21.77
2022-12-09T19:11:51.292Z,21.08
2022-12-09T19:14:20.573Z,21.40
2022-12-09T19:16:48.323Z,21.20
2022-12-09T19:19:17.713Z,20.13
2022-12-09T19:21:45.590Z,20.13
2022-12-09T19:24:18.314Z,19.65
2022-12-09T19:26:45.301Z,19.80
2022-12-09T19:29:13.854Z,20.35
2022-12-09T19:31:46.632Z,19.77
2022-12-09T19:34:16.493Z,20.63
2022-12-09T19:36:44.242Z,19.95
2022-12-09T19:39:12.267Z,19.60
2022-12-09T19:41:40.399Z,20.67
2022-12-09T19:44:08.577Z,21.70
2022-12-09T19:46:35.578Z,21.65
2022-12-09T19:49:02.843Z,19.60
2022-12-09T19:51:29.716Z,20.55
2022-12-09T19:53:58.368Z,20.83
2022-12-09T19:56:25.649Z,21.08
2022-12-09T19:58:53.254Z,21.30
2022-12-09T20:01:30.742Z,22.25
2022-12-09T20:04:25.255Z,21.83
2022-12-09T20:06:53.196Z,21.08
2022-12-09T20:09:24.330Z,20.27
2022-12-09T20:11:52.733Z,21.38
2022-12-09T20:14:19.879Z,20.95
2022-12-09T20:16:46.624Z,20.73
2022-12-09T20:19:13.733Z,21.45
2022-12-09T20:21:40.655Z,21.55
2022-12-09T20:24:09.623Z,21.05
2022-12-09T20:26:38.074Z,20.38
2022-12-09T20:29:07.577Z,20.92
2022-12-09T20:31:35.955Z,22.95
2022-12-09T20:34:06.170Z,22.92
2022-12-09T20:36:34.856Z,21.20
2022-12-09T20:39:05.582Z,21.55
2022-12-09T20:41:32.319Z,21.05
2022-12-09T20:44:00.162Z,20.40
2022-12-09T20:46:30.098Z,21.33
2022-12-09T20:48:57.979Z,21.27
2022-12-09T20:51:27.676Z,20.83
2022-12-09T20:53:55.353Z,20.98
2022-12-09T20:56:24.068Z,21.15
2022-12-09T20:58:53.588Z,21.85
2022-12-09T21:01:21.722Z,21.77
2022-12-09T21:03:49.258Z,21.00
2022-12-09T21:06:17.614Z,22.10
2022-12-09T21:08:45.360Z,22.60
2022-12-09T21:11:21.351Z,21.67
2022-12-09T21:13:50.885Z,22.15
2022-12-09T21:16:21.300Z,23.35
2022-12-09T21:18:49.672Z,23.10
2022-12-09T21:21:18.171Z,21.90
2022-12-09T21:23:44.984Z,23.02
2022-12-09T21:26:14.300Z,21.58
2022-12-09T21:28:42.209Z,22.92
2022-12-09T21:31:21.044Z,22.15
2022-12-09T21:33:49.665Z,21.25
2022-12-09T21:36:18.764Z,22.33
2022-12-09T21:38:45.547Z,23.02
2022-12-09T21:41:18.109Z,23.25
2022-12-09T21:43:45.559Z,22.55
2022-12-09T21:46:16.163Z,22.40
2022-12-09T21:48:42.928Z,22.98
2022-12-09T21:51:11.112Z,22.77
2022-12-09T21:53:38.530Z,22.88
2022-12-09T21:56:07.896Z,24.13
2022-12-09T21:58:35.717Z,24.63
2022-12-09T22:01:09.949Z,23.42
2022-12-09T22:03:37.274Z,24.23
2022-12-09T22:06:04.965Z,24.00
2022-12-09T22:08:31.653Z,23.80
2022-12-09T22:10:58.697Z,24.05
2022-12-09T22:13:26.487Z,24.45
2022-12-09T22:15:53.637Z,22.85
2022-12-09T22:18:20.594Z,23.23
2022-12-09T22:21:23.029Z,25.58
2022-12-09T22:23:34.916Z,24.42
2022-12-09T22:26:05.496Z,23.63
2022-12-09T22:28:32.419Z,23.67
2022-12-09T22:30:59.200Z,24.08
2022-12-09T22:33:26.003Z,24.88
2022-12-09T22:35:52.692Z,24.63
2022-12-09T22:38:19.411Z,25.75
2022-12-09T22:40:46.085Z,25.25
2022-12-09T22:43:12.770Z,25.38
2022-12-09T22:45:39.571Z,24.67
2022-12-09T22:48:06.277Z,25.00
2022-12-09T22:50:36.281Z,24.88
2022-12-09T22:53:03.047Z,23.23
2022-12-09T22:55:29.807Z,24.98
2022-12-09T22:57:56.845Z,25.85
2022-12-09T23:00:23.625Z,25.58
2022-12-09T23:02:50.435Z,26.50
2022-12-09T23:05:17.483Z,25.10
2022-12-09T23:07:44.262Z,25.70
2022-12-09T23:10:11.049Z,24.73
2022-12-09T23:12:37.826Z,25.33
2022-12-09T23:15:04.897Z,25.40
2022-12-09T23:17:31.576Z,25.73
2022-12-09T23:19:58.286Z,25.73
2022-12-09T23:22:25.018Z,25.33
2022-12-09T23:24:51.746Z,23.58
2022-12-09T23:27:18.446Z,24.30
2022-12-09T23:29:45.758Z,25.42
2022-12-09T23:32:12.534Z,24.90
2022-12-09T23:34:40.050Z,26.17
2022-12-09T23:37:06.811Z,24.83
2022-12-09T23:39:33.502Z,24.65
2022-12-09T23:42:00.159Z,24.95
2022-12-09T23:44:26.881Z,24.13
2022-12-09T23:46:53.712Z,24.63
2022-12-09T23:49:20.428Z,25.17
2022-12-09T23:51:47.888Z,25.42
2022-12-09T23:54:16.476Z,26.23
2022-12-09T23:56:47.901Z,24.17
2022-12-09T23:59:15.146Z,26.05
